Time;durP1;ratioP1;P1;durP2;ratioP2;P2;SDS_P1;SDS_P2;PMS_P1;PMS_P2;Temp;Humidity;BMP_temperature;BMP_pressure;BME280_temperature;BME280_humidity;BME280_pressure;Samples;Min_cycle;Max_cycle;Signal;HPM_P1;HPM_P2
2022/03/22 00:00:44;;;;;;;28.73;15.85;;;;;;;;;;5070565;28;20374;-74
2022/03/22 00:03:10;;;;;;;24.75;16.48;;;;;;;;;;5070332;28;20046;-74
2022/03/22 00:05:40;;;;;;;26.25;15.38;;;;;;;;;;5070037;28;20032;-74
2022/03/22 00:08:06;;;;;;;28.83;16.85;;;;;;;;;;5070864;28;20035;-74
2022/03/22 00:10:32;;;;;;;27.05;16.33;;;;;;;;;;5057520;28;20388;-74
2022/03/22 00:12:58;;;;;;;25.40;17.17;;;;;;;;;;5050298;28;20037;-74
2022/03/22 00:15:24;;;;;;;27.45;15.95;;;;;;;;;;5064729;28;20029;-74
2022/03/22 00:17:51;;;;;;;28.70;16.23;;;;;;;;;;5055126;28;20048;-74
2022/03/22 00:20:17;;;;;;;27.42;15.45;;;;;;;;;;5065401;28;20372;-74
2022/03/22 00:22:43;;;;;;;26.38;15.88;;;;;;;;;;5073060;28;20471;-75
2022/03/22 00:25:10;;;;;;;25.67;15.45;;;;;;;;;;5072449;28;20027;-74
2022/03/22 00:27:55;;;;;;;25.63;15.90;;;;;;;;;;5071691;28;20056;-74
2022/03/22 00:30:22;;;;;;;31.35;14.95;;;;;;;;;;5056060;28;20028;-74
2022/03/22 00:32:52;;;;;;;23.35;15.02;;;;;;;;;;5066490;28;20047;-74
2022/03/22 00:35:18;;;;;;;25.63;14.82;;;;;;;;;;5057845;28;20115;-74
2022/03/22 00:37:46;;;;;;;26.58;15.60;;;;;;;;;;5071568;28;20051;-74
2022/03/22 00:40:18;;;;;;;24.70;14.52;;;;;;;;;;5069923;28;20479;-75
2022/03/22 00:42:46;;;;;;;;;;;;;;;;;;5065237;28;20457;-74
2022/03/22 00:45:12;;;;;;;22.92;13.98;;;;;;;;;;5069804;28;20377;-74
2022/03/22 00:47:38;;;;;;;28.55;17.30;;;;;;;;;;5061456;28;20127;-74
2022/03/22 00:50:04;;;;;;;28.27;16.55;;;;;;;;;;5050185;28;20475;-74
2022/03/22 00:52:32;;;;;;;28.13;16.88;;;;;;;;;;5054321;28;20040;-74
2022/03/22 00:54:58;;;;;;;26.85;17.60;;;;;;;;;;5069836;28;20024;-75
2022/03/22 00:57:24;;;;;;;35.40;16.55;;;;;;;;;;5068783;28;20827;-74
2022/03/22 01:00:04;;;;;;;27.38;14.98;;;;;;;;;;5069200;28;20044;-74
2022/03/22 01:02:30;;;;;;;24.13;13.85;;;;;;;;;;5069438;28;20048;-74
2022/03/22 01:04:57;;;;;;;24.13;16.00;;;;;;;;;;5067058;28;20052;-74
2022/03/22 01:07:23;;;;;;;22.63;13.57;;;;;;;;;;5069947;28;20048;-74
2022/03/22 01:09:50;;;;;;;26.88;14.55;;;;;;;;;;5069062;28;20036;-74
2022/03/22 01:12:16;;;;;;;26.83;16.42;;;;;;;;;;5069504;28;20029;-74
2022/03/22 01:14:42;;;;;;;26.90;16.77;;;;;;;;;;5063658;28;20139;-74
2022/03/22 01:17:08;;;;;;;29.73;17.67;;;;;;;;;;5068338;28;20040;-74
2022/03/22 01:19:35;;;;;;;31.13;17.73;;;;;;;;;;5055669;28;20032;-74
2022/03/22 01:22:01;;;;;;;32.65;18.30;;;;;;;;;;5069880;28;20044;-74
2022/03/22 01:24:29;;;;;;;28.58;15.80;;;;;;;;;;5069136;28;20130;-74
2022/03/22 01:26:56;;;;;;;28.27;16.73;;;;;;;;;;5068853;28;20056;-74
2022/03/22 01:29:22;;;;;;;26.05;15.82;;;;;;;;;;5069033;28;20090;-74
2022/03/22 01:31:49;;;;;;;25.08;15.27;;;;;;;;;;5068374;28;20074;-74
2022/03/22 01:34:15;;;;;;;30.27;17.90;;;;;;;;;;5065551;28;20040;-74
2022/03/22 01:36:41;;;;;;;30.25;16.23;;;;;;;;;;5056233;28;20454;-75
2022/03/22 01:39:07;;;;;;;30.98;17.20;;;;;;;;;;5059215;28;20021;-74
2022/03/22 01:41:34;;;;;;;28.52;17.83;;;;;;;;;;5053373;28;20044;-75
2022/03/22 01:44:00;;;;;;;32.60;19.05;;;;;;;;;;5063596;28;20122;-74
2022/03/22 01:46:27;;;;;;;29.02;15.90;;;;;;;;;;5050510;28;20055;-74
2022/03/22 01:48:54;;;;;;;29.52;15.70;;;;;;;;;;5069029;28;20040;-74
2022/03/22 01:51:23;;;;;;;35.75;18.20;;;;;;;;;;5068714;28;20066;-74
2022/03/22 01:53:50;;;;;;;33.83;16.48;;;;;;;;;;5064171;28;20040;-74
2022/03/22 01:56:17;;;;;;;28.27;14.65;;;;;;;;;;5068489;28;20106;-74
2022/03/22 01:58:43;;;;;;;30.90;16.45;;;;;;;;;;5070024;28;20040;-74
2022/03/22 02:06:45;;;;;;;25.38;15.75;;;;;;;;;;5059393;28;20056;-74
2022/03/22 02:09:11;;;;;;;25.10;13.93;;;;;;;;;;5071614;28;20040;-74
2022/03/22 02:11:38;;;;;;;23.85;14.05;;;;;;;;;;5056338;28;20147;-75
2022/03/22 02:14:04;;;;;;;26.35;13.57;;;;;;;;;;5070645;28;20032;-74
2022/03/22 02:16:31;;;;;;;25.25;14.07;;;;;;;;;;5057084;28;20028;-74
2022/03/22 02:18:58;;;;;;;21.25;13.10;;;;;;;;;;5066882;28;20085;-74
2022/03/22 02:21:25;;;;;;;23.17;13.13;;;;;;;;;;5073045;28;20043;-74
2022/03/22 02:23:52;;;;;;;23.75;14.07;;;;;;;;;;5064102;28;20037;-74
2022/03/22 02:26:19;;;;;;;24.15;13.02;;;;;;;;;;5065972;28;20472;-74
2022/03/22 02:28:45;;;;;;;23.92;13.25;;;;;;;;;;5053056;28;20037;-74
2022/03/22 02:31:13;;;;;;;26.15;13.77;;;;;;;;;;5061783;28;20028;-74
2022/03/22 02:33:42;;;;;;;24.60;15.45;;;;;;;;;;5071756;28;20036;-74
2022/03/22 02:36:09;;;;;;;27.98;15.07;;;;;;;;;;5052388;28;20025;-74
2022/03/22 02:38:35;;;;;;;28.95;15.40;;;;;;;;;;5059896;28;20024;-74
2022/03/22 02:41:01;;;;;;;34.00;17.88;;;;;;;;;;5072407;28;20388;-74
2022/03/22 02:43:27;;;;;;;25.58;15.65;;;;;;;;;;5071499;28;20053;-75
2022/03/22 02:45:53;;;;;;;24.85;16.58;;;;;;;;;;5064574;28;20072;-74
2022/03/22 02:48:19;;;;;;;29.58;16.75;;;;;;;;;;5059817;28;20055;-74
2022/03/22 02:50:47;;;;;;;25.02;15.52;;;;;;;;;;5066005;28;20032;-74
2022/03/22 02:53:13;;;;;;;21.83;14.02;;;;;;;;;;5059989;28;20040;-74
2022/03/22 02:55:39;;;;;;;31.58;15.95;;;;;;;;;;5071617;28;20131;-74
2022/03/22 02:58:05;;;;;;;26.38;15.48;;;;;;;;;;5072121;28;20040;-74
2022/03/22 03:00:31;;;;;;;28.55;15.10;;;;;;;;;;5069873;28;20025;-74
2022/03/22 03:02:57;;;;;;;26.77;13.55;;;;;;;;;;5072249;28;20037;-74
2022/03/22 03:05:24;;;;;;;22.73;13.27;;;;;;;;;;5072324;28;20029;-75
2022/03/22 03:07:51;;;;;;;27.15;14.18;;;;;;;;;;5063041;28;20835;-74
2022/03/22 03:10:17;;;;;;;22.40;12.93;;;;;;;;;;5069145;28;20038;-74
2022/03/22 03:12:43;;;;;;;20.60;12.52;;;;;;;;;;5067887;28;20179;-74
2022/03/22 03:15:11;;;;;;;22.98;13.68;;;;;;;;;;5069082;28;20029;-74
2022/03/22 03:17:37;;;;;;;20.90;13.20;;;;;;;;;;5066637;28;20043;-74
2022/03/22 03:20:04;;;;;;;21.67;13.55;;;;;;;;;;5071479;28;20036;-74
2022/03/22 03:22:30;;;;;;;19.70;13.18;;;;;;;;;;5071452;28;20165;-75
2022/03/22 03:24:56;;;;;;;24.10;12.65;;;;;;;;;;5071828;28;20020;-74
2022/03/22 03:27:22;;;;;;;19.38;12.52;;;;;;;;;;5071171;28;20041;-74
2022/03/22 03:29:49;;;;;;;20.80;13.77;;;;;;;;;;5059505;28;20487;-74
2022/03/22 03:32:15;;;;;;;18.95;11.38;;;;;;;;;;5066587;28;20041;-74
2022/03/22 03:34:41;;;;;;;20.15;12.57;;;;;;;;;;5069695;28;20123;-75
2022/03/22 03:37:07;;;;;;;26.10;13.65;;;;;;;;;;5071519;28;20126;-74
2022/03/22 03:39:34;;;;;;;20.65;10.98;;;;;;;;;;5071139;28;20462;-74
2022/03/22 03:42:02;;;;;;;26.15;12.35;;;;;;;;;;5059591;28;20085;-74
2022/03/22 03:47:15;;;;;;;22.23;12.43;;;;;;;;;;5059120;28;20055;-74
2022/03/22 03:49:41;;;;;;;20.88;12.27;;;;;;;;;;5071231;28;20791;-74
2022/03/22 03:52:11;;;;;;;25.00;11.85;;;;;;;;;;5067461;28;20767;-74
2022/03/22 03:54:38;;;;;;;20.50;11.18;;;;;;;;;;5056688;28;20024;-74
2022/03/22 03:57:04;;;;;;;17.48;11.27;;;;;;;;;;5070240;28;20479;-74
2022/03/22 03:59:30;;;;;;;19.10;11.35;;;;;;;;;;5071135;28;20024;-74
2022/03/22 04:01:56;;;;;;;18.35;11.30;;;;;;;;;;5070417;28;20410;-74
2022/03/22 04:04:23;;;;;;;23.58;11.07;;;;;;;;;;5051840;28;20028;-74
2022/03/22 04:06:49;;;;;;;19.70;10.38;;;;;;;;;;5063727;28;20116;-74
2022/03/22 04:09:15;;;;;;;21.50;12.25;;;;;;;;;;5070829;28;20036;-74
2022/03/22 04:11:42;;;;;;;19.38;11.55;;;;;;;;;;5070861;28;20036;-74
2022/03/22 04:14:08;;;;;;;20.25;10.88;;;;;;;;;;5070623;28;20032;-74
2022/03/22 04:16:42;;;;;;;20.30;11.32;;;;;;;;;;5059394;28;20040;-75
2022/03/22 04:19:08;;;;;;;22.17;11.80;;;;;;;;;;5070035;28;20028;-73
2022/03/22 04:21:38;;;;;;;21.77;11.18;;;;;;;;;;5069588;28;20142;-75
2022/03/22 04:24:08;;;;;;;18.00;10.85;;;;;;;;;;5070092;28;20029;-75
2022/03/22 04:26:38;;;;;;;18.63;11.32;;;;;;;;;;5069993;28;20123;-75
2022/03/22 04:34:34;;;;;;;19.98;13.25;;;;;;;;;;5068954;28;20066;-75
2022/03/22 04:37:00;;;;;;;20.60;12.55;;;;;;;;;;5070423;28;20064;-75
2022/03/22 04:39:27;;;;;;;20.58;12.18;;;;;;;;;;5055633;28;20502;-75
2022/03/22 04:41:53;;;;;;;23.40;11.82;;;;;;;;;;5064706;28;20040;-75
2022/03/22 04:44:19;;;;;;;28.85;12.35;;;;;;;;;;5010748;28;20042;-75
2022/03/22 04:46:46;;;;;;;24.98;11.63;;;;;;;;;;5029820;28;20045;-75
2022/03/22 04:49:12;;;;;;;20.58;11.98;;;;;;;;;;5029241;28;20025;-75
2022/03/22 04:57:08;;;;;;;20.40;12.25;;;;;;;;;;5035214;28;20114;-75
2022/03/22 04:59:34;;;;;;;24.30;14.02;;;;;;;;;;5031450;28;20026;-75
2022/03/22 05:02:00;;;;;;;31.05;14.98;;;;;;;;;;5010774;28;20037;-75
2022/03/22 05:04:26;;;;;;;25.48;14.38;;;;;;;;;;5010842;28;20032;-75
2022/03/22 05:06:54;;;;;;;29.33;14.93;;;;;;;;;;5029945;28;20100;-75
2022/03/22 05:09:20;;;;;;;35.90;18.30;;;;;;;;;;5024357;28;20022;-75
2022/03/22 05:11:46;;;;;;;29.05;17.13;;;;;;;;;;5014379;28;20042;-75
2022/03/22 05:14:12;;;;;;;32.25;17.50;;;;;;;;;;5016722;28;20358;-75
2022/03/22 05:16:39;;;;;;;31.38;17.60;;;;;;;;;;5021753;28;20624;-75
2022/03/22 05:19:05;;;;;;;30.08;16.08;;;;;;;;;;5028221;28;20076;-76
2022/03/22 05:21:31;;;;;;;27.42;15.63;;;;;;;;;;5025001;28;20026;-75
2022/03/22 05:23:57;;;;;;;28.90;14.20;;;;;;;;;;5028186;28;20069;-75
2022/03/22 05:26:26;;;;;;;28.90;16.00;;;;;;;;;;5028945;28;20084;-75
2022/03/22 05:28:53;;;;;;;24.90;14.65;;;;;;;;;;5029503;28;20049;-75
2022/03/22 05:31:21;;;;;;;30.90;16.63;;;;;;;;;;5025717;28;20034;-75
2022/03/22 05:33:48;;;;;;;26.67;15.13;;;;;;;;;;5027727;28;20377;-75
2022/03/22 05:36:14;;;;;;;27.42;14.55;;;;;;;;;;5028965;28;20021;-75
2022/03/22 05:38:40;;;;;;;26.45;13.80;;;;;;;;;;5029530;28;20113;-75
2022/03/22 05:41:08;;;;;;;24.95;15.18;;;;;;;;;;5026647;28;20100;-75
2022/03/22 05:43:35;;;;;;;26.67;14.35;;;;;;;;;;5037036;28;20052;-75
2022/03/22 05:46:01;;;;;;;23.50;14.25;;;;;;;;;;5057026;28;20023;-75
2022/03/22 05:48:29;;;;;;;23.98;13.90;;;;;;;;;;5068707;28;20143;-75
2022/03/22 05:50:55;;;;;;;24.60;13.75;;;;;;;;;;5069416;28;20477;-75
2022/03/22 05:53:21;;;;;;;23.42;14.18;;;;;;;;;;5069145;28;20036;-75
2022/03/22 05:55:47;;;;;;;29.02;14.18;;;;;;;;;;5069148;28;20040;-75
2022/03/22 05:58:13;;;;;;;40.58;16.80;;;;;;;;;;5068513;28;20045;-75
2022/03/22 06:00:39;;;;;;;29.60;16.83;;;;;;;;;;5068216;28;20690;-75
2022/03/22 06:03:05;;;;;;;26.63;15.85;;;;;;;;;;5069244;28;20028;-75
2022/03/22 06:05:31;;;;;;;25.20;14.35;;;;;;;;;;5068379;28;20035;-75
2022/03/22 06:07:59;;;;;;;27.52;15.10;;;;;;;;;;5068480;28;20041;-75
2022/03/22 06:10:26;;;;;;;29.17;15.45;;;;;;;;;;5068643;28;20035;-75
2022/03/22 06:12:53;;;;;;;31.52;15.10;;;;;;;;;;5068442;28;20036;-75
2022/03/22 06:15:21;;;;;;;29.02;15.75;;;;;;;;;;5057996;28;20039;-75
2022/03/22 06:17:51;;;;;;;29.67;15.75;;;;;;;;;;5069647;28;20083;-75
2022/03/22 06:20:18;;;;;;;24.42;14.27;;;;;;;;;;5066478;28;20036;-75
2022/03/22 06:22:45;;;;;;;31.60;16.38;;;;;;;;;;5066158;28;20044;-75
2022/03/22 06:25:11;;;;;;;32.17;15.93;;;;;;;;;;5068340;28;20020;-75
2022/03/22 06:27:38;;;;;;;35.92;17.55;;;;;;;;;;5061829;28;20044;-75
2022/03/22 06:30:05;;;;;;;28.67;15.95;;;;;;;;;;5057082;28;20064;-75
2022/03/22 06:32:31;;;;;;;33.95;17.55;;;;;;;;;;5060379;28;20042;-75
2022/03/22 06:34:57;;;;;;;41.17;19.05;;;;;;;;;;5060569;28;20128;-75
2022/03/22 06:37:23;;;;;;;36.67;18.23;;;;;;;;;;5062777;28;20071;-75
2022/03/22 06:39:49;;;;;;;43.28;20.17;;;;;;;;;;5064344;28;20507;-75
2022/03/22 06:42:15;;;;;;;45.20;20.25;;;;;;;;;;5080025;28;20151;-76
2022/03/22 06:44:41;;;;;;;46.60;22.60;;;;;;;;;;5072830;28;20055;-75
2022/03/22 06:47:08;;;;;;;42.30;20.50;;;;;;;;;;5067756;28;20072;-76
2022/03/22 06:49:34;;;;;;;49.08;19.33;;;;;;;;;;5056499;28;20107;-75
2022/03/22 06:51:59;;;;;;;52.92;18.67;;;;;;;;;;5058974;28;20063;-75
2022/03/22 06:54:27;;;;;;;35.22;15.88;;;;;;;;;;5056120;28;20457;-75
2022/03/22 06:56:53;;;;;;;28.98;16.17;;;;;;;;;;5065349;28;20514;-75
2022/03/22 06:59:20;;;;;;;28.48;15.35;;;;;;;;;;5066370;28;20024;-76
2022/03/22 07:01:46;;;;;;;30.33;14.32;;;;;;;;;;5068062;28;20037;-75
2022/03/22 07:04:11;;;;;;;25.60;15.70;;;;;;;;;;5054991;28;20762;-75
2022/03/22 07:06:37;;;;;;;25.92;14.13;;;;;;;;;;5070686;28;20075;-75
2022/03/22 07:09:03;;;;;;;31.98;13.57;;;;;;;;;;5067528;28;20387;-75
2022/03/22 07:14:29;;;;;;;29.08;13.27;;;;;;;;;;5049865;28;20475;-74
2022/03/22 07:16:55;;;;;;;25.27;13.23;;;;;;;;;;5071098;28;20033;-74
2022/03/22 07:19:23;;;;;;;31.42;13.93;;;;;;;;;;5068468;28;20020;-74
2022/03/22 07:21:50;;;;;;;29.20;13.18;;;;;;;;;;5055513;28;20090;-74
2022/03/22 07:24:21;;;;;;;29.88;14.98;;;;;;;;;;5071000;28;20095;-74
2022/03/22 07:26:47;;;;;;;31.35;16.10;;;;;;;;;;5065677;28;20787;-74
2022/03/22 07:29:13;;;;;;;35.47;15.93;;;;;;;;;;5071547;28;20097;-75
2022/03/22 07:31:40;;;;;;;30.25;17.40;;;;;;;;;;5066140;28;20136;-74
2022/03/22 07:34:07;;;;;;;27.83;17.40;;;;;;;;;;5075724;28;20036;-74
2022/03/22 07:36:36;;;;;;;32.50;18.88;;;;;;;;;;5072320;28;20037;-74
2022/03/22 07:39:02;;;;;;;37.15;20.10;;;;;;;;;;5073253;28;20116;-74
2022/03/22 07:41:28;;;;;;;29.65;15.80;;;;;;;;;;5055800;28;20040;-75
2022/03/22 07:43:54;;;;;;;28.70;15.93;;;;;;;;;;5068825;28;20684;-74
2022/03/22 07:46:23;;;;;;;28.20;16.00;;;;;;;;;;5070746;28;20039;-74
2022/03/22 07:48:49;;;;;;;24.88;15.15;;;;;;;;;;5071332;28;20056;-74
2022/03/22 07:54:00;;;;;;;30.13;15.55;;;;;;;;;;5060165;28;20050;-74
2022/03/22 07:56:26;;;;;;;29.42;15.35;;;;;;;;;;5072699;28;20562;-74
2022/03/22 07:58:52;;;;;;;27.88;14.93;;;;;;;;;;5062680;28;20025;-74
2022/03/22 08:01:18;;;;;;;24.45;13.00;;;;;;;;;;5063504;28;20456;-74
2022/03/22 08:03:44;;;;;;;20.13;10.10;;;;;;;;;;5058407;28;20025;-74
2022/03/22 08:06:10;;;;;;;14.95;8.75;;;;;;;;;;5070226;28;20686;-74
2022/03/22 08:08:43;;;;;;;15.23;8.68;;;;;;;;;;5064307;28;20024;-75
2022/03/22 08:11:09;;;;;;;16.30;8.98;;;;;;;;;;5067593;28;20383;-74
2022/03/22 08:13:39;;;;;;;25.42;10.70;;;;;;;;;;5054965;28;20757;-74
2022/03/22 08:16:05;;;;;;;26.48;13.95;;;;;;;;;;5063365;28;20456;-74
2022/03/22 08:18:31;;;;;;;28.75;14.77;;;;;;;;;;5059701;28;20024;-74
2022/03/22 08:20:57;;;;;;;22.70;14.57;;;;;;;;;;5064097;28;20028;-74
2022/03/22 08:23:23;;;;;;;30.45;15.20;;;;;;;;;;5072190;28;20058;-74
2022/03/22 08:25:51;;;;;;;23.92;13.75;;;;;;;;;;5070063;28;20059;-73
2022/03/22 08:28:17;;;;;;;22.50;13.98;;;;;;;;;;5070616;28;20040;-74
2022/03/22 08:30:43;;;;;;;24.75;11.80;;;;;;;;;;5061871;28;20480;-74
2022/03/22 08:33:10;;;;;;;21.52;12.07;;;;;;;;;;5065647;28;20044;-75
2022/03/22 08:35:52;;;;;;;23.05;12.70;;;;;;;;;;5073746;28;20495;-74
2022/03/22 08:38:24;;;;;;;23.95;13.63;;;;;;;;;;5061396;28;20033;-74
2022/03/22 08:40:50;;;;;;;20.67;12.13;;;;;;;;;;5060202;28;20032;-74
2022/03/22 08:43:16;;;;;;;23.75;11.95;;;;;;;;;;5059053;28;20056;-74
2022/03/22 08:45:42;;;;;;;18.33;11.45;;;;;;;;;;5069299;28;20043;-73
2022/03/22 08:48:12;;;;;;;24.73;13.60;;;;;;;;;;5074213;28;20165;-74
2022/03/22 08:50:39;;;;;;;25.48;13.57;;;;;;;;;;5067726;28;20033;-74
2022/03/22 08:53:06;;;;;;;21.50;12.65;;;;;;;;;;5057767;28;20033;-74
2022/03/22 08:55:33;;;;;;;20.98;12.00;;;;;;;;;;5057834;28;20553;-74
2022/03/22 08:58:05;;;;;;;21.33;12.45;;;;;;;;;;5061176;28;20036;-74
2022/03/22 09:00:32;;;;;;;21.00;12.05;;;;;;;;;;5058222;28;20020;-74
2022/03/22 09:02:58;;;;;;;19.90;12.15;;;;;;;;;;5057711;28;20037;-74
2022/03/22 09:08:09;;;;;;;23.10;12.02;;;;;;;;;;5065141;28;20048;-74
2022/03/22 09:10:36;;;;;;;22.88;12.40;;;;;;;;;;5053490;28;20570;-74
2022/03/22 09:13:02;;;;;;;20.63;12.65;;;;;;;;;;5056650;28;20039;-74
2022/03/22 09:15:29;;;;;;;24.20;11.25;;;;;;;;;;5059711;28;20799;-74
2022/03/22 09:17:55;;;;;;;17.58;10.80;;;;;;;;;;5065147;28;20478;-74
2022/03/22 09:20:22;;;;;;;19.98;10.07;;;;;;;;;;5055414;28;20029;-74
2022/03/22 09:22:49;;;;;;;20.65;11.30;;;;;;;;;;5065571;28;20089;-74
2022/03/22 09:25:16;;;;;;;19.95;11.15;;;;;;;;;;5058045;28;20028;-74
2022/03/22 09:27:42;;;;;;;22.27;10.27;;;;;;;;;;5065994;28;20036;-74
2022/03/22 09:30:09;;;;;;;22.05;10.50;;;;;;;;;;5056794;28;20057;-74
2022/03/22 09:32:35;;;;;;;16.60;10.80;;;;;;;;;;5063170;28;20356;-74
2022/03/22 09:35:06;;;;;;;16.33;10.48;;;;;;;;;;5063222;28;20109;-74
2022/03/22 09:37:32;;;;;;;18.15;10.10;;;;;;;;;;5062926;28;20476;-74
2022/03/22 09:39:58;;;;;;;17.08;10.02;;;;;;;;;;5066822;28;20067;-74
2022/03/22 09:42:24;;;;;;;23.73;12.70;;;;;;;;;;5060542;28;20079;-74
2022/03/22 09:44:51;;;;;;;22.33;10.45;;;;;;;;;;5070510;28;20043;-74
2022/03/22 09:47:17;;;;;;;15.52;9.90;;;;;;;;;;5074395;28;20024;-74
2022/03/22 09:49:44;;;;;;;18.58;10.48;;;;;;;;;;5068883;28;20033;-74
2022/03/22 09:52:10;;;;;;;19.45;10.30;;;;;;;;;;5060488;28;20048;-74
2022/03/22 09:54:37;;;;;;;17.02;10.07;;;;;;;;;;5064021;28;20025;-75
2022/03/22 09:57:04;;;;;;;17.60;10.40;;;;;;;;;;5067833;28;20032;-74
2022/03/22 09:59:31;;;;;;;17.83;10.50;;;;;;;;;;5068937;28;20024;-74
2022/03/22 10:02:00;;;;;;;17.42;11.13;;;;;;;;;;5073313;28;20032;-74
2022/03/22 10:04:35;;;;;;;19.00;10.32;;;;;;;;;;5067693;28;20033;-74
2022/03/22 10:07:03;;;;;;;18.05;10.38;;;;;;;;;;5053655;28;20387;-74
2022/03/22 10:09:39;;;;;;;17.60;10.40;;;;;;;;;;5065823;28;20029;-74
2022/03/22 10:12:07;;;;;;;16.95;10.77;;;;;;;;;;5057130;28;20033;-75
2022/03/22 10:14:38;;;;;;;17.45;10.40;;;;;;;;;;5059204;28;20037;-75
2022/03/22 10:17:09;;;;;;;19.55;11.35;;;;;;;;;;5056172;28;20028;-74
2022/03/22 10:19:41;;;;;;;20.80;10.70;;;;;;;;;;5071088;28;20020;-75
2022/03/22 10:22:10;;;;;;;18.02;10.00;;;;;;;;;;5059220;28;20060;-74
2022/03/22 10:24:43;;;;;;;14.20;9.90;;;;;;;;;;5066609;28;20025;-74
2022/03/22 10:27:19;;;;;;;20.08;11.50;;;;;;;;;;5073594;28;20042;-74
2022/03/22 10:29:45;;;;;;;14.27;10.02;;;;;;;;;;5065855;28;20043;-74
2022/03/22 10:32:11;;;;;;;17.08;10.95;;;;;;;;;;5068865;28;20056;-74
2022/03/22 10:34:37;;;;;;;17.55;10.73;;;;;;;;;;5060756;28;20044;-74
2022/03/22 10:37:04;;;;;;;16.88;10.43;;;;;;;;;;5065741;28;20051;-74
2022/03/22 10:39:30;;;;;;;17.95;10.05;;;;;;;;;;5080210;28;20020;-74
2022/03/22 10:42:04;;;;;;;17.08;10.05;;;;;;;;;;5071047;28;20052;-74
2022/03/22 10:44:34;;;;;;;20.45;11.40;;;;;;;;;;5083598;28;20036;-74
2022/03/22 10:47:02;;;;;;;16.70;10.52;;;;;;;;;;5071645;28;20036;-74
2022/03/22 10:49:29;;;;;;;19.50;10.75;;;;;;;;;;5062012;28;20361;-74
2022/03/22 10:51:56;;;;;;;22.88;11.35;;;;;;;;;;5064473;28;20028;-75
2022/03/22 10:54:22;;;;;;;21.70;10.23;;;;;;;;;;5075550;28;20388;-74
2022/03/22 10:56:49;;;;;;;18.08;10.13;;;;;;;;;;5073889;28;20072;-74
2022/03/22 10:59:16;;;;;;;18.30;11.00;;;;;;;;;;5070558;28;20510;-75
2022/03/22 11:01:43;;;;;;;17.42;10.55;;;;;;;;;;5082300;28;20748;-74
2022/03/22 11:04:10;;;;;;;14.13;9.50;;;;;;;;;;5065366;28;20056;-74
2022/03/22 11:06:37;;;;;;;18.73;9.15;;;;;;;;;;5064283;28;20352;-74
2022/03/22 11:09:04;;;;;;;15.90;8.70;;;;;;;;;;5057440;28;20886;-74
2022/03/22 11:11:31;;;;;;;17.95;7.95;;;;;;;;;;5082995;28;20059;-74
2022/03/22 11:13:57;;;;;;;12.50;8.02;;;;;;;;;;5079708;28;20028;-74
2022/03/22 11:16:26;;;;;;;12.48;7.88;;;;;;;;;;5075694;28;20664;-74
2022/03/22 11:18:53;;;;;;;18.48;8.52;;;;;;;;;;5053252;28;20040;-75
2022/03/22 11:21:19;;;;;;;13.68;8.18;;;;;;;;;;5068090;28;20031;-74
2022/03/22 11:23:47;;;;;;;18.08;9.18;;;;;;;;;;5061604;28;20384;-74
2022/03/22 11:26:22;;;;;;;19.20;8.90;;;;;;;;;;5067814;28;20020;-74
2022/03/22 11:28:51;;;;;;;15.57;9.25;;;;;;;;;;5064029;28;20100;-74
2022/03/22 11:31:20;;;;;;;14.18;8.63;;;;;;;;;;5075619;28;20769;-74
2022/03/22 11:36:43;;;;;;;19.05;10.20;;;;;;;;;;5059890;28;20059;-74
2022/03/22 11:39:09;;;;;;;20.30;10.82;;;;;;;;;;5067299;28;20119;-74
2022/03/22 11:44:21;;;;;;;20.05;10.77;;;;;;;;;;5054977;28;20132;-74
2022/03/22 11:46:48;;;;;;;20.38;11.15;;;;;;;;;;5081360;28;20040;-74
2022/03/22 11:49:17;;;;;;;15.40;9.57;;;;;;;;;;5074438;28;20495;-74
2022/03/22 11:51:47;;;;;;;16.05;10.20;;;;;;;;;;5070917;28;20060;-74
2022/03/22 11:54:14;;;;;;;19.38;10.10;;;;;;;;;;5079214;28;20063;-74
2022/03/22 11:56:47;;;;;;;22.38;11.63;;;;;;;;;;5065236;28;20037;-74
2022/03/22 11:59:16;;;;;;;22.75;10.65;;;;;;;;;;5067660;28;20028;-74
2022/03/22 12:01:42;;;;;;;18.77;11.32;;;;;;;;;;5078602;28;20063;-74
2022/03/22 12:04:17;;;;;;;17.67;10.20;;;;;;;;;;5057814;28;20057;-74
2022/03/22 12:06:44;;;;;;;19.55;10.55;;;;;;;;;;5073724;28;20040;-74
2022/03/22 12:09:10;;;;;;;18.48;12.02;;;;;;;;;;5075448;28;20028;-74
2022/03/22 12:11:37;;;;;;;18.25;11.60;;;;;;;;;;5071999;28;20121;-74
2022/03/22 12:14:04;;;;;;;20.17;11.52;;;;;;;;;;5063492;28;20033;-74
2022/03/22 12:16:30;;;;;;;20.95;11.45;;;;;;;;;;5076367;28;20473;-74
2022/03/22 12:18:59;;;;;;;16.08;10.38;;;;;;;;;;5071756;28;20471;-74
2022/03/22 12:21:26;;;;;;;21.38;11.60;;;;;;;;;;5079084;28;20040;-74
2022/03/22 12:23:52;;;;;;;20.75;11.65;;;;;;;;;;5064121;28;20479;-74
2022/03/22 12:26:18;;;;;;;16.63;10.25;;;;;;;;;;5062168;28;20032;-74
2022/03/22 12:28:51;;;;;;;20.75;11.80;;;;;;;;;;5069400;28;20028;-74
2022/03/22 12:31:21;;;;;;;19.85;10.45;;;;;;;;;;5077239;28;20024;-74
2022/03/22 12:33:50;;;;;;;15.50;10.27;;;;;;;;;;5058819;28;20482;-74
2022/03/22 12:36:18;;;;;;;27.40;10.77;;;;;;;;;;5062228;28;20047;-75
2022/03/22 12:38:44;;;;;;;21.45;11.30;;;;;;;;;;5070946;28;20024;-74
2022/03/22 12:41:10;;;;;;;18.30;10.25;;;;;;;;;;5078263;28;20035;-74
2022/03/22 12:43:36;;;;;;;18.05;9.98;;;;;;;;;;5057262;28;20049;-74
2022/03/22 12:46:02;;;;;;;17.67;10.18;;;;;;;;;;5065347;28;20080;-74
2022/03/22 12:48:30;;;;;;;17.17;9.93;;;;;;;;;;5079021;28;20016;-74
2022/03/22 12:50:56;;;;;;;19.13;10.45;;;;;;;;;;5084430;28;20355;-74
2022/03/22 12:53:22;;;;;;;16.05;10.02;;;;;;;;;;5074415;28;20054;-74
2022/03/22 12:55:48;;;;;;;16.80;9.93;;;;;;;;;;5060955;28;20033;-75
2022/03/22 12:58:14;;;;;;;17.30;10.23;;;;;;;;;;5055214;28;20760;-74
2022/03/22 13:00:41;;;;;;;22.45;10.75;;;;;;;;;;5067216;28;20760;-74
2022/03/22 13:03:08;;;;;;;21.90;10.27;;;;;;;;;;5051913;28;20150;-74
2022/03/22 13:05:39;;;;;;;16.45;9.55;;;;;;;;;;5049245;28;20041;-74
2022/03/22 13:08:11;;;;;;;21.63;11.52;;;;;;;;;;5056002;28;20067;-74
2022/03/22 13:13:22;;;;;;;19.17;10.32;;;;;;;;;;5051190;28;20781;-74
2022/03/22 13:15:49;;;;;;;19.75;9.15;;;;;;;;;;5071822;28;20040;-74
2022/03/22 13:18:15;;;;;;;20.52;10.05;;;;;;;;;;5074549;28;20039;-74
2022/03/22 13:20:41;;;;;;;22.08;11.43;;;;;;;;;;5072903;28;20036;-74
2022/03/22 13:23:14;;;;;;;20.95;11.10;;;;;;;;;;5069070;28;20024;-74
2022/03/22 13:25:41;;;;;;;21.13;10.88;;;;;;;;;;5060069;28;20094;-74
2022/03/22 13:28:11;;;;;;;22.58;10.20;;;;;;;;;;5059430;28;20040;-73
2022/03/22 13:30:39;;;;;;;16.15;9.70;;;;;;;;;;5069739;28;20037;-74
2022/03/22 13:33:27;;;;;;;16.35;9.63;;;;;;;;;;5068637;28;20169;-74
2022/03/22 13:35:54;;;;;;;20.58;9.82;;;;;;;;;;5061030;28;20040;-74
2022/03/22 13:38:20;;;;;;;21.08;11.60;;;;;;;;;;5057867;28;20035;-74
2022/03/22 13:40:47;;;;;;;21.33;9.80;;;;;;;;;;5073724;28;20025;-74
2022/03/22 13:43:13;;;;;;;15.98;9.93;;;;;;;;;;5064702;28;20044;-73
2022/03/22 13:45:47;;;;;;;19.17;11.00;;;;;;;;;;5052598;28;20061;-73
2022/03/22 13:48:13;;;;;;;19.65;9.77;;;;;;;;;;5056067;28;20064;-73
2022/03/22 13:50:40;;;;;;;17.33;9.57;;;;;;;;;;5055655;28;20083;-74
2022/03/22 13:53:06;;;;;;;16.70;10.30;;;;;;;;;;5063744;28;20036;-73
2022/03/22 13:55:34;;;;;;;18.35;10.75;;;;;;;;;;5049068;28;20029;-73
2022/03/22 13:58:00;;;;;;;16.58;10.82;;;;;;;;;;5055630;28;20107;-73
2022/03/22 14:00:26;;;;;;;16.75;10.25;;;;;;;;;;5067284;28;20730;-74
2022/03/22 14:02:52;;;;;;;16.35;9.75;;;;;;;;;;5052229;28;20025;-73
2022/03/22 14:05:19;;;;;;;16.85;9.52;;;;;;;;;;5051168;28;20036;-73
2022/03/22 14:07:54;;;;;;;15.40;9.98;;;;;;;;;;5057538;28;20120;-73
2022/03/22 14:10:21;;;;;;;22.65;10.50;;;;;;;;;;5060000;28;20098;-73
2022/03/22 14:12:47;;;;;;;17.15;9.13;;;;;;;;;;5074361;28;20126;-73
2022/03/22 14:15:13;;;;;;;19.88;10.63;;;;;;;;;;5067484;28;20138;-73
2022/03/22 14:17:39;;;;;;;19.27;10.07;;;;;;;;;;5067094;28;20033;-73
2022/03/22 14:20:06;;;;;;;19.95;9.32;;;;;;;;;;5072254;28;20468;-73
2022/03/22 14:22:32;;;;;;;22.55;10.10;;;;;;;;;;5049748;28;20033;-73
2022/03/22 14:24:59;;;;;;;19.90;9.52;;;;;;;;;;5054239;28;20075;-73
2022/03/22 14:27:25;;;;;;;18.98;10.48;;;;;;;;;;5064881;28;20036;-73
2022/03/22 14:29:52;;;;;;;19.02;9.50;;;;;;;;;;5065985;28;20112;-73
2022/03/22 14:32:18;;;;;;;23.77;9.23;;;;;;;;;;5059766;28;20502;-73
2022/03/22 14:37:29;;;;;;;17.10;8.90;;;;;;;;;;5050327;28;20090;-73
2022/03/22 14:39:55;;;;;;;15.48;8.55;;;;;;;;;;5066873;28;20036;-73
2022/03/22 14:42:24;;;;;;;16.30;8.00;;;;;;;;;;5062662;28;20488;-73
2022/03/22 14:44:50;;;;;;;16.45;8.65;;;;;;;;;;5050524;28;20076;-73
2022/03/22 14:47:16;;;;;;;14.48;8.45;;;;;;;;;;5069174;28;20391;-73
2022/03/22 14:49:42;;;;;;;19.65;9.25;;;;;;;;;;5058660;28;20058;-73
2022/03/22 14:54:52;;;;;;;14.95;8.75;;;;;;;;;;5062580;28;20446;-74
2022/03/22 15:00:05;;;;;;;16.45;8.57;;;;;;;;;;5057385;28;20048;-73
2022/03/22 15:02:31;;;;;;;15.25;8.68;;;;;;;;;;5061922;28;20032;-73